Time;durP1;ratioP1;P1;durP2;ratioP2;P2;SDS_P1;SDS_P2;PMS_P1;PMS_P2;Temp;Humidity;BMP_temperature;BMP_pressure;BME280_temperature;BME280_humidity;BME280_pressure;Samples;Min_cycle;Max_cycle;Signal;HPM_P1;HPM_P2
2023/09/30 00:00:00;;;;;;;0.50;0.50;;;;;;;12.05;91.96;99644.56;6153999;23;20112;-83
2023/09/30 00:02:37;;;;;;;0.50;0.50;;;;;;;12.00;92.11;99650.72;6153338;23;20022;-83
2023/09/30 00:05:04;;;;;;;0.47;0.47;;;;;;;11.97;92.20;99642.22;6154109;23;20017;-84
2023/09/30 00:07:32;;;;;;;0.43;0.43;;;;;;;11.90;92.52;99642.34;6153215;23;20492;-84
2023/09/30 00:10:00;;;;;;;0.50;0.50;;;;;;;11.85;92.64;99647.63;6153622;23;20029;-84
2023/09/30 00:12:29;;;;;;;0.50;0.50;;;;;;;11.80;93.01;99639.41;6080376;23;20030;-84
2023/09/30 00:14:56;;;;;;;0.50;0.50;;;;;;;11.77;93.04;99640.69;6153574;23;20036;-84
2023/09/30 00:17:23;;;;;;;0.50;0.50;;;;;;;11.78;93.27;99652.34;6153623;23;20021;-84
2023/09/30 00:19:50;;;;;;;0.50;0.50;;;;;;;11.75;93.23;99639.28;6139418;23;20036;-85
2023/09/30 00:22:17;;;;;;;0.50;0.50;;;;;;;11.69;93.43;99631.06;6168251;23;20108;-84
2023/09/30 00:24:45;;;;;;;0.60;0.60;;;;;;;11.69;93.55;99644.56;6172960;23;20021;-83
2023/09/30 00:27:12;;;;;;;0.50;0.50;;;;;;;11.63;93.73;99629.31;6138554;23;20025;-86
2023/09/30 00:29:39;;;;;;;0.50;0.50;;;;;;;11.61;93.83;99627.91;6155711;23;20045;-84
2023/09/30 00:32:06;;;;;;;0.50;0.50;;;;;;;11.59;94.10;99630.84;6155438;23;20029;-83
2023/09/30 00:34:36;;;;;;;0.50;0.50;;;;;;;11.57;94.12;99624.00;6155967;23;20104;-83
2023/09/30 00:37:04;;;;;;;0.50;0.50;;;;;;;11.55;94.22;99629.69;6132974;23;20032;-84
2023/09/30 00:39:32;;;;;;;0.50;0.50;;;;;;;11.53;94.64;99636.38;6171246;23;20032;-84
2023/09/30 00:42:00;;;;;;;0.50;0.50;;;;;;;11.45;94.88;99629.44;6171924;23;20265;-84
2023/09/30 00:44:29;;;;;;;0.50;0.50;;;;;;;11.47;94.74;99633.56;6133499;23;20084;-84
2023/09/30 00:46:56;;;;;;;0.50;0.50;;;;;;;11.47;94.74;99625.44;6155273;23;20059;-83
2023/09/30 00:49:24;;;;;;;0.50;0.50;;;;;;;11.44;95.00;99630.47;6155471;23;20021;-84
2023/09/30 00:51:52;;;;;;;0.50;0.50;;;;;;;11.41;95.24;99622.84;6155494;23;20108;-82
2023/09/30 00:54:19;;;;;;;0.50;0.50;;;;;;;11.36;95.50;99617.31;6129421;23;20112;-83
2023/09/30 00:56:48;;;;;;;0.50;0.50;;;;;;;11.39;95.37;99620.38;6128559;23;20489;-84
2023/09/30 00:59:17;;;;;;;0.50;0.50;;;;;;;11.38;95.43;99620.63;6155249;23;20021;-83
2023/09/30 01:01:46;;;;;;;0.50;0.50;;;;;;;11.38;95.47;99623.31;6129203;23;20225;-84
2023/09/30 01:04:14;;;;;;;0.50;0.50;;;;;;;11.33;95.28;99613.22;6129741;23;20031;-83
2023/09/30 01:06:42;;;;;;;0.50;0.50;;;;;;;11.33;95.79;99612.41;6155221;23;20354;-84
2023/09/30 01:09:10;;;;;;;0.45;0.45;;;;;;;11.32;95.76;99618.84;6154864;23;20049;-82
2023/09/30 01:11:37;;;;;;;0.50;0.50;;;;;;;11.29;95.92;99614.72;6129198;23;20021;-85
2023/09/30 01:14:04;;;;;;;0.40;0.40;;;;;;;11.25;96.13;99618.97;6129251;23;20357;-82
2023/09/30 01:16:31;;;;;;;0.55;0.55;;;;;;;11.15;96.49;99613.31;6128631;23;20479;-83
2023/09/30 01:19:00;;;;;;;0.50;0.50;;;;;;;11.12;96.77;99613.81;6154794;23;20029;-83
2023/09/30 01:21:27;;;;;;;0.60;0.60;;;;;;;11.07;97.04;99611.78;6155080;23;20041;-84
2023/09/30 01:23:55;;;;;;;0.50;0.50;;;;;;;11.04;97.33;99614.97;6128961;23;20330;-83
2023/09/30 01:26:22;;;;;;;0.55;0.55;;;;;;;11.00;97.59;99619.19;6104233;23;20025;-83
2023/09/30 01:28:49;;;;;;;0.50;0.50;;;;;;;10.95;97.74;99610.94;6154606;23;20025;-84
2023/09/30 01:31:17;;;;;;;0.50;0.50;;;;;;;10.86;97.88;99610.44;6154662;23;20029;-83
2023/09/30 01:33:44;;;;;;;0.50;0.50;;;;;;;10.85;98.17;99617.72;6154526;23;20430;-84
2023/09/30 01:36:11;;;;;;;0.60;0.60;;;;;;;10.82;98.56;99615.50;6154566;23;20021;-84
2023/09/30 01:38:38;;;;;;;0.50;0.50;;;;;;;10.82;98.54;99606.56;6154286;23;20025;-84
2023/09/30 01:41:05;;;;;;;0.50;0.50;;;;;;;10.80;98.79;99611.38;6154630;23;20029;-84
2023/09/30 01:43:36;;;;;;;0.50;0.50;;;;;;;10.81;98.83;99605.75;6129460;23;20028;-83
2023/09/30 01:46:05;;;;;;;0.50;0.50;;;;;;;10.79;98.69;99609.75;6128691;23;20027;-83
2023/09/30 01:48:33;;;;;;;0.60;0.60;;;;;;;10.74;99.05;99615.84;6153859;23;20021;-83
2023/09/30 01:51:01;;;;;;;0.50;0.50;;;;;;;10.73;98.73;99613.34;6154416;23;20030;-83
2023/09/30 01:53:30;;;;;;;0.57;0.57;;;;;;;10.70;98.90;99611.13;6154361;23;20125;-84
2023/09/30 01:55:57;;;;;;;0.60;0.60;;;;;;;10.64;98.95;99615.56;6128816;23;20515;-83
2023/09/30 01:58:25;;;;;;;0.60;0.60;;;;;;;10.60;99.32;99617.06;6128347;23;20025;-84
2023/09/30 02:00:53;;;;;;;0.60;0.60;;;;;;;10.59;99.71;99610.84;6128219;23;20284;-82
2023/09/30 02:03:20;;;;;;;0.50;0.50;;;;;;;10.54;99.96;99610.72;6128531;23;20021;-83
2023/09/30 02:05:47;;;;;;;0.60;0.60;;;;;;;10.54;100.00;99612.59;6154359;23;20108;-84
2023/09/30 02:08:15;;;;;;;0.50;0.50;;;;;;;10.54;100.00;99608.03;6128725;23;20048;-84
2023/09/30 02:10:43;;;;;;;0.60;0.60;;;;;;;10.54;100.00;99605.31;6128818;23;20033;-84
2023/09/30 02:13:10;;;;;;;0.57;0.57;;;;;;;10.52;100.00;99609.31;6104139;23;20381;-83
2023/09/30 02:15:41;;;;;;;0.60;0.60;;;;;;;10.48;100.00;99606.25;6103916;23;20025;-83
2023/09/30 02:18:09;;;;;;;0.60;0.60;;;;;;;10.49;100.00;99598.97;6155382;23;20026;-83
2023/09/30 02:20:39;;;;;;;0.60;0.60;;;;;;;10.46;100.00;99602.97;6130215;23;20025;-84
2023/09/30 02:23:10;;;;;;;0.60;0.60;;;;;;;10.45;100.00;99604.00;6155501;23;20462;-83
2023/09/30 02:25:38;;;;;;;0.50;0.50;;;;;;;10.37;100.00;99599.75;6154383;23;20096;-83
2023/09/30 02:28:09;;;;;;;0.60;0.60;;;;;;;10.36;100.00;99599.97;6103890;23;20028;-83
2023/09/30 02:30:36;;;;;;;0.60;0.60;;;;;;;10.35;100.00;99604.53;6153806;23;20068;-86
2023/09/30 02:33:04;;;;;;;0.50;0.50;;;;;;;10.36;100.00;99605.38;6153904;23;20378;-84
2023/09/30 02:35:32;;;;;;;0.60;0.60;;;;;;;10.36;100.00;99595.41;6153986;23;20025;-85
2023/09/30 02:38:00;;;;;;;0.60;0.60;;;;;;;10.32;100.00;99599.59;6104174;23;20029;-85
2023/09/30 02:40:27;;;;;;;0.60;0.60;;;;;;;10.28;100.00;99594.88;6128046;23;20111;-86
2023/09/30 02:42:55;;;;;;;0.60;0.60;;;;;;;10.24;100.00;99596.38;6153962;23;20053;-83
2023/09/30 02:45:24;;;;;;;0.60;0.60;;;;;;;10.22;100.00;99590.38;6153995;23;20021;-85
2023/09/30 02:47:51;;;;;;;0.60;0.60;;;;;;;10.24;100.00;99590.97;6153673;23;20025;-84
2023/09/30 02:50:19;;;;;;;0.60;0.60;;;;;;;10.26;100.00;99584.31;6128372;23;20096;-83
2023/09/30 02:52:46;;;;;;;0.60;0.60;;;;;;;10.28;100.00;99586.78;6153677;23;20025;-84
2023/09/30 02:55:13;;;;;;;0.57;0.57;;;;;;;10.27;100.00;99585.94;6153817;23;20092;-84
2023/09/30 02:57:40;;;;;;;0.60;0.60;;;;;;;10.25;100.00;99588.03;6127873;23;20021;-84
2023/09/30 03:02:57;;;;;;;0.60;0.60;;;;;;;10.16;100.00;99589.44;6153523;23;20029;-84
2023/09/30 03:05:27;;;;;;;0.60;0.60;;;;;;;10.14;100.00;99586.94;6128618;23;20076;-83
2023/09/30 03:07:55;;;;;;;0.50;0.50;;;;;;;10.17;100.00;99593.75;6154031;23;20028;-84
2023/09/30 03:10:26;;;;;;;0.50;0.50;;;;;;;10.14;100.00;99584.25;6128387;23;20110;-84
2023/09/30 03:12:54;;;;;;;0.60;0.60;;;;;;;10.14;100.00;99586.13;6153540;23;20456;-84
2023/09/30 03:15:21;;;;;;;0.60;0.60;;;;;;;10.11;100.00;99584.72;6154314;23;20025;-84
2023/09/30 03:17:49;;;;;;;0.50;0.50;;;;;;;10.18;100.00;99587.31;6154055;23;20118;-83
2023/09/30 03:20:20;;;;;;;0.60;0.60;;;;;;;10.17;100.00;99591.88;6129179;23;20049;-84
2023/09/30 03:22:48;;;;;;;0.57;0.57;;;;;;;10.15;100.00;99590.47;6154159;23;20513;-85
2023/09/30 03:25:17;;;;;;;0.60;0.60;;;;;;;10.11;100.00;99591.97;6154481;23;20049;-84
2023/09/30 03:27:47;;;;;;;0.60;0.60;;;;;;;10.13;100.00;99589.88;6127765;23;20361;-85
2023/09/30 03:30:17;;;;;;;0.60;0.60;;;;;;;10.15;100.00;99587.75;6154315;23;20045;-83
2023/09/30 03:32:44;;;;;;;0.60;0.60;;;;;;;10.13;100.00;99590.69;6151965;23;20373;-84
2023/09/30 03:35:19;;;;;;;0.55;0.55;;;;;;;10.13;100.00;99587.19;6153923;23;20025;-85
2023/09/30 03:37:46;;;;;;;0.50;0.50;;;;;;;10.14;100.00;99589.63;6153347;23;20047;-84
2023/09/30 03:40:18;;;;;;;0.60;0.60;;;;;;;10.13;100.00;99585.31;6154411;23;20021;-84
2023/09/30 03:42:49;;;;;;;0.60;0.60;;;;;;;10.15;100.00;99585.91;6153500;23;20485;-85
2023/09/30 03:45:18;;;;;;;0.50;0.50;;;;;;;10.15;100.00;99585.91;6152938;23;20076;-86
2023/09/30 03:47:47;;;;;;;0.50;0.50;;;;;;;10.11;100.00;99584.72;6154255;23;20056;-86
2023/09/30 03:50:15;;;;;;;0.50;0.50;;;;;;;10.11;100.00;99581.19;6154479;23;20025;-86
2023/09/30 03:52:47;;;;;;;0.50;0.50;;;;;;;10.07;100.00;99582.69;6154703;23;20025;-85
2023/09/30 03:55:17;;;;;;;0.60;0.60;;;;;;;10.10;100.00;99576.84;6153695;23;20461;-85
2023/09/30 03:57:48;;;;;;;0.50;0.50;;;;;;;10.13;100.00;99585.31;6154111;23;20032;-86
2023/09/30 04:00:19;;;;;;;0.50;0.50;;;;;;;10.18;100.00;99584.63;6155977;23;20072;-85
2023/09/30 04:02:49;;;;;;;0.60;0.60;;;;;;;10.22;100.00;99577.72;6129692;23;20048;-84
2023/09/30 04:05:19;;;;;;;0.50;0.50;;;;;;;10.33;100.00;99578.84;6140923;23;20022;-85
2023/09/30 04:07:47;;;;;;;0.60;0.60;;;;;;;10.46;100.00;99583.22;6176607;23;20028;-84
2023/09/30 04:10:15;;;;;;;0.60;0.60;;;;;;;10.56;100.00;99578.94;6177302;23;20349;-86
2023/09/30 04:12:45;;;;;;;0.60;0.60;;;;;;;10.62;100.00;99579.88;6171365;23;20117;-84
2023/09/30 04:15:13;;;;;;;0.60;0.60;;;;;;;10.67;100.00;99576.50;6130472;23;20461;-85
2023/09/30 04:17:40;;;;;;;0.60;0.60;;;;;;;10.69;100.00;99577.91;6156152;23;20028;-84
2023/09/30 04:20:10;;;;;;;0.52;0.52;;;;;;;10.73;100.00;99579.06;6156409;23;20032;-86
2023/09/30 04:22:38;;;;;;;0.50;0.50;;;;;;;10.71;99.98;99581.22;6129703;23;20465;-85
2023/09/30 04:25:08;;;;;;;0.60;0.60;;;;;;;10.80;99.85;99578.97;6132436;23;20539;-84
2023/09/30 04:27:36;;;;;;;0.60;0.60;;;;;;;10.81;99.71;99573.38;6153667;23;20028;-85
2023/09/30 04:30:08;;;;;;;0.50;0.50;;;;;;;10.90;99.36;99578.41;6177327;23;20100;-84
2023/09/30 04:32:38;;;;;;;0.50;0.50;;;;;;;10.92;99.15;99582.53;6135045;23;20453;-85
2023/09/30 04:35:05;;;;;;;0.50;0.50;;;;;;;10.97;98.71;99588.06;6157232;23;20360;-84
2023/09/30 04:37:33;;;;;;;0.60;0.60;;;;;;;11.02;98.36;99588.19;6156326;23;20465;-83
2023/09/30 04:40:00;;;;;;;0.50;0.50;;;;;;;11.04;98.15;99587.97;6156854;23;20093;-88
2023/09/30 04:42:29;;;;;;;0.57;0.57;;;;;;;11.06;97.75;99589.38;6131953;23;20026;-88
2023/09/30 04:44:57;;;;;;;0.60;0.60;;;;;;;11.09;97.45;99585.38;6130449;23;20028;-86
2023/09/30 04:47:24;;;;;;;0.50;0.50;;;;;;;11.12;97.02;99589.50;6106023;23;20060;-86
2023/09/30 04:49:51;;;;;;;0.60;0.60;;;;;;;11.16;96.70;99587.94;6156379;23;20465;-84
2023/09/30 04:52:18;;;;;;;0.50;0.50;;;;;;;11.22;96.47;99593.25;6156442;23;20412;-83
2023/09/30 04:54:45;;;;;;;0.60;0.60;;;;;;;11.25;96.11;99581.97;6156017;23;20051;-83
2023/09/30 04:57:12;;;;;;;0.60;0.60;;;;;;;11.33;95.63;99588.06;6155889;23;20361;-85
2023/09/30 04:59:40;;;;;;;0.50;0.50;;;;;;;11.31;95.35;99587.47;6129620;23;20050;-84
2023/09/30 05:02:07;;;;;;;0.60;0.60;;;;;;;11.33;95.37;99590.78;6155856;23;20081;-84
2023/09/30 05:04:34;;;;;;;0.50;0.50;;;;;;;11.39;95.29;99581.72;6156508;23;20025;-85
2023/09/30 05:07:01;;;;;;;0.57;0.57;;;;;;;11.50;94.90;99587.13;6130522;23;20021;-86
2023/09/30 05:09:28;;;;;;;0.50;0.50;;;;;;;11.59;94.53;99586.75;6156479;23;20025;-86
2023/09/30 05:11:55;;;;;;;0.50;0.50;;;;;;;11.68;94.21;99586.16;6130576;23;20024;-85
2023/09/30 05:14:25;;;;;;;0.60;0.60;;;;;;;11.79;93.61;99586.38;6131928;23;20342;-88
2023/09/30 05:16:52;;;;;;;0.60;0.60;;;;;;;11.85;92.56;99590.81;6129190;23;20072;-85
2023/09/30 05:19:20;;;;;;;0.60;0.60;;;;;;;11.97;92.09;99588.13;6129069;23;20040;-84
2023/09/30 05:21:48;;;;;;;0.50;0.50;;;;;;;11.94;91.71;99575.91;6129255;23;20025;-85
2023/09/30 05:24:21;;;;;;;0.60;0.60;;;;;;;11.98;91.74;99568.97;6129253;23;20021;-84
2023/09/30 05:26:48;;;;;;;0.60;0.60;;;;;;;12.13;91.04;99577.38;6155306;23;20026;-83
2023/09/30 05:29:16;;;;;;;0.60;0.60;;;;;;;12.17;90.69;99577.72;6129688;23;20413;-83
2023/09/30 05:31:44;;;;;;;0.60;0.60;;;;;;;12.22;90.47;99571.59;6155389;23;20437;-85
2023/09/30 05:34:11;;;;;;;0.60;0.60;;;;;;;12.23;89.89;99562.41;6129925;23;20486;-85
2023/09/30 05:36:39;;;;;;;0.60;0.60;;;;;;;12.27;89.96;99560.88;6154830;23;20025;-86
2023/09/30 05:39:10;;;;;;;0.60;0.60;;;;;;;12.42;89.60;99560.31;6081814;23;20021;-85
2023/09/30 05:41:38;;;;;;;0.60;0.60;;;;;;;12.49;89.25;99559.13;6154494;23;20394;-84
2023/09/30 05:44:07;;;;;;;0.60;0.60;;;;;;;12.64;88.79;99557.75;6129021;23;20055;-84
2023/09/30 05:46:34;;;;;;;0.57;0.57;;;;;;;12.70;88.09;99559.47;6155179;23;20021;-84
2023/09/30 05:49:06;;;;;;;0.60;0.60;;;;;;;12.85;87.79;99573.25;6155470;23;20088;-84
2023/09/30 05:51:37;;;;;;;0.50;0.50;;;;;;;12.95;87.17;99568.00;6154579;23;20503;-83
2023/09/30 05:54:04;;;;;;;0.70;0.70;;;;;;;12.95;86.81;99550.94;6154864;23;20031;-84
2023/09/30 05:56:32;;;;;;;0.60;0.60;;;;;;;13.26;86.35;99563.06;6154614;23;20031;-83
2023/09/30 05:59:00;;;;;;;0.50;0.50;;;;;;;13.32;85.73;99559.41;6154889;23;20080;-83
2023/09/30 06:01:27;;;;;;;0.60;0.60;;;;;;;13.44;85.42;99565.53;6155071;23;20401;-83
2023/09/30 06:03:56;;;;;;;0.60;0.60;;;;;;;13.40;84.80;99558.97;6057042;23;20025;-84
2023/09/30 06:06:25;;;;;;;0.60;0.60;;;;;;;13.51;84.66;99556.41;6081499;23;20025;-84
2023/09/30 06:09:25;;;;;;;0.50;0.50;;;;;;;13.60;84.16;99558.44;6055472;23;21157;-84
2023/09/30 06:12:45;;;;;;;0.60;0.60;;;;;;;13.81;83.68;99555.97;6007627;23;20023;-85
2023/09/30 06:15:43;;;;;;;0.60;0.60;;;;;;;13.74;82.92;99542.59;6072290;23;20398;-84
2023/09/30 06:19:48;;;;;;;0.60;0.60;;;;;;;13.87;82.88;99555.81;5982570;23;20032;-84
2023/09/30 06:22:38;;;;;;;0.50;0.50;;;;;;;13.97;82.75;99548.84;5933701;24;20027;-84
2023/09/30 06:25:08;;;;;;;0.50;0.50;;;;;;;14.01;82.30;99541.84;5955667;24;20020;-84
2023/09/30 06:27:37;;;;;;;0.60;0.60;;;;;;;14.04;82.01;99533.19;5933005;24;20028;-84
2023/09/30 06:30:16;;;;;;;0.60;0.60;;;;;;;14.17;81.79;99540.94;5911705;24;20554;-85
2023/09/30 06:33:14;;;;;;;0.50;0.50;;;;;;;14.26;81.58;99544.03;5932915;24;20028;-85
2023/09/30 06:35:50;;;;;;;0.50;0.50;;;;;;;14.38;81.33;99536.56;5974168;24;20050;-84
2023/09/30 06:38:19;;;;;;;0.50;0.50;;;;;;;14.43;80.79;99533.88;5951780;24;20024;-84
2023/09/30 06:40:47;;;;;;;0.50;0.50;;;;;;;14.50;80.79;99520.06;5951308;24;20025;-84
2023/09/30 06:43:17;;;;;;;0.50;0.50;;;;;;;14.86;80.50;99536.72;5951169;24;20044;-84
2023/09/30 06:45:46;;;;;;;0.50;0.50;;;;;;;15.01;79.58;99519.69;5950841;24;20194;-84
2023/09/30 06:48:14;;;;;;;0.50;0.50;;;;;;;15.08;79.17;99523.84;5951581;24;20485;-84
2023/09/30 06:50:48;;;;;;;0.50;0.50;;;;;;;15.18;78.58;99510.31;6004796;23;20023;-85
2023/09/30 06:53:16;;;;;;;0.57;0.57;;;;;;;15.46;77.79;99524.59;6034135;23;20514;-84
2023/09/30 06:55:44;;;;;;;0.50;0.50;;;;;;;15.51;77.23;99521.91;6068384;23;20028;-84
2023/09/30 06:58:11;;;;;;;0.60;0.60;;;;;;;15.66;76.51;99523.91;6092763;23;20538;-85
2023/09/30 07:00:38;;;;;;;0.50;0.50;;;;;;;15.77;75.81;99512.00;6092345;23;20069;-84
2023/09/30 07:03:05;;;;;;;0.60;0.60;;;;;;;15.96;75.57;99512.34;6068613;23;20469;-84
2023/09/30 07:05:33;;;;;;;0.60;0.60;;;;;;;16.19;74.45;99516.47;6092539;23;20022;-85
2023/09/30 07:08:00;;;;;;;0.50;0.50;;;;;;;16.40;74.04;99511.88;6087902;23;20450;-86
2023/09/30 07:10:31;;;;;;;0.50;0.50;;;;;;;16.63;73.20;99520.63;6064613;23;20026;-84
2023/09/30 07:12:58;;;;;;;0.50;0.50;;;;;;;16.80;72.96;99515.75;6063795;23;20026;-86
2023/09/30 07:15:25;;;;;;;0.50;0.50;;;;;;;17.03;72.21;99521.75;6088000;23;20026;-84
2023/09/30 07:17:53;;;;;;;0.50;0.50;;;;;;;17.19;71.00;99512.47;6085526;23;20022;-83
2023/09/30 07:20:22;;;;;;;0.50;0.50;;;;;;;17.41;70.44;99511.31;6086830;23;20030;-86
2023/09/30 07:22:49;;;;;;;0.50;0.50;;;;;;;17.61;69.69;99505.78;6108767;23;20080;-86
2023/09/30 07:25:41;;;;;;;0.50;0.50;;;;;;;17.77;68.59;99506.53;6149426;23;20096;-86
2023/09/30 07:28:11;;;;;;;0.50;0.50;;;;;;;17.83;68.01;99502.72;6124696;23;20416;-87
2023/09/30 07:30:39;;;;;;;0.50;0.50;;;;;;;18.03;66.87;99510.00;6125353;23;20378;-91
2023/09/30 07:33:07;;;;;;;0.50;0.50;;;;;;;18.14;66.50;99506.09;6152711;23;20060;-84
2023/09/30 07:35:35;;;;;;;0.50;0.50;;;;;;;18.26;65.84;99504.94;6146663;23;20052;-86
2023/09/30 07:38:04;;;;;;;0.50;0.50;;;;;;;18.47;64.26;99509.16;6098879;23;20621;-84
2023/09/30 07:40:32;;;;;;;0.50;0.50;;;;;;;18.40;64.00;99498.53;6151775;23;20022;-83
2023/09/30 07:42:59;;;;;;;0.60;0.60;;;;;;;18.57;62.93;99489.94;6150490;23;20381;-85
2023/09/30 07:45:27;;;;;;;0.50;0.50;;;;;;;18.67;62.53;99480.06;6152081;23;20025;-86
2023/09/30 07:47:55;;;;;;;0.60;0.60;;;;;;;18.90;61.98;99483.97;6101608;23;20025;-85
2023/09/30 07:50:22;;;;;;;0.50;0.50;;;;;;;19.18;61.02;99487.78;6125101;23;20025;-85
2023/09/30 07:52:50;;;;;;;0.50;0.50;;;;;;;19.44;59.75;99502.00;6125812;23;20476;-86
2023/09/30 07:55:18;;;;;;;0.50;0.50;;;;;;;19.86;58.44;99492.22;6151537;23;20032;-85
2023/09/30 07:57:46;;;;;;;0.50;0.50;;;;;;;20.18;56.63;99491.53;6124391;23;20032;-85
2023/09/30 08:00:15;;;;;;;0.55;0.55;;;;;;;20.61;55.06;99471.41;6151168;23;20025;-85
2023/09/30 08:02:44;;;;;;;0.50;0.50;;;;;;;21.20;53.56;99478.88;6149970;23;20029;-85
2023/09/30 08:05:12;;;;;;;0.60;0.60;;;;;;;21.30;51.92;99479.81;6100805;23;20049;-84
2023/09/30 08:07:40;;;;;;;0.60;0.60;;;;;;;21.31;51.61;99484.97;6150791;23;20045;-82
2023/09/30 08:10:13;;;;;;;0.50;0.50;;;;;;;21.60;51.37;99479.22;6152004;23;20025;-85
2023/09/30 08:12:41;;;;;;;0.50;0.50;;;;;;;21.77;49.88;99466.78;6158725;23;20029;-85
2023/09/30 08:15:14;;;;;;;0.50;0.50;;;;;;;21.78;49.80;99471.16;6155872;23;20318;-84
2023/09/30 08:17:41;;;;;;;0.50;0.50;;;;;;;21.86;49.63;99474.00;6132620;23;20021;-84
2023/09/30 08:20:09;;;;;;;0.50;0.50;;;;;;;22.14;48.98;99462.13;6151037;23;20368;-86
2023/09/30 08:22:37;;;;;;;0.50;0.50;;;;;;;22.54;48.27;99460.38;6150032;23;20473;-84
2023/09/30 08:25:06;;;;;;;0.50;0.50;;;;;;;22.94;47.59;99452.22;6077729;23;20032;-83
2023/09/30 08:27:34;;;;;;;0.50;0.50;;;;;;;23.22;46.61;99460.28;6151924;23;20026;-82
2023/09/30 08:30:04;;;;;;;0.50;0.50;;;;;;;23.05;45.44;99461.03;6149603;23;20029;-83
2023/09/30 08:32:34;;;;;;;0.50;0.50;;;;;;;23.07;45.67;99467.03;6133368;23;20032;-84
2023/09/30 08:35:03;;;;;;;0.50;0.50;;;;;;;22.71;45.81;99460.50;6141043;23;20045;-84
2023/09/30 08:37:31;;;;;;;0.50;0.50;;;;;;;22.60;45.47;99455.56;6166332;23;20021;-84
2023/09/30 08:39:58;;;;;;;0.50;0.50;;;;;;;22.84;45.59;99447.78;6128499;23;20070;-84
2023/09/30 08:42:32;;;;;;;0.50;0.50;;;;;;;23.36;44.06;99431.50;6155314;23;20021;-84
2023/09/30 08:45:00;;;;;;;0.50;0.50;;;;;;;23.44;43.76;99429.09;6153685;23;20487;-84
2023/09/30 08:47:30;;;;;;;0.50;0.50;;;;;;;23.62;42.84;99444.53;6130252;23;20036;-84
2023/09/30 08:50:05;;;;;;;0.50;0.50;;;;;;;23.09;42.96;99445.50;6128879;23;20052;-84
2023/09/30 08:52:34;;;;;;;0.50;0.50;;;;;;;23.08;43.07;99441.94;6130730;23;20021;-84
2023/09/30 08:55:09;;;;;;;0.50;0.50;;;;;;;23.49;42.39;99439.97;6154998;23;20428;-83
2023/09/30 08:57:41;;;;;;;0.50;0.50;;;;;;;23.75;41.09;99427.09;6129034;23;20022;-84
2023/09/30 09:00:13;;;;;;;0.50;0.50;;;;;;;24.09;41.15;99455.84;6129059;23;20101;-83
2023/09/30 09:02:41;;;;;;;0.50;0.50;;;;;;;24.16;40.35;99442.38;6154870;23;20036;-84
2023/09/30 09:05:09;;;;;;;0.45;0.45;;;;;;;23.96;40.56;99432.81;6129010;23;20025;-83
2023/09/30 09:07:37;;;;;;;0.50;0.50;;;;;;;23.92;40.85;99426.31;6128749;23;20026;-83
2023/09/30 09:10:07;;;;;;;0.50;0.50;;;;;;;24.35;40.17;99432.97;6128815;23;20555;-83
2023/09/30 09:12:38;;;;;;;0.50;0.50;;;;;;;24.36;39.58;99429.88;6155294;23;20022;-82
2023/09/30 09:15:08;;;;;;;0.50;0.50;;;;;;;24.30;39.67;99425.66;6156187;23;20021;-84
2023/09/30 09:17:43;;;;;;;0.40;0.40;;;;;;;24.53;38.52;99422.72;6155626;23;20108;-83
2023/09/30 09:20:32;;;;;;;0.50;0.50;;;;;;;24.78;38.02;99429.34;6156914;23;20090;-84
2023/09/30 09:23:00;;;;;;;0.50;0.50;;;;;;;25.01;38.16;99421.63;6112632;23;20030;-84
2023/09/30 09:25:28;;;;;;;0.50;0.50;;;;;;;25.13;37.56;99445.78;6162444;23;20026;-84
2023/09/30 09:27:56;;;;;;;0.50;0.50;;;;;;;25.08;37.30;99419.97;6134810;23;20021;-83
2023/09/30 09:30:25;;;;;;;0.50;0.50;;;;;;;25.33;36.83;99413.91;6159175;23;20030;-85
2023/09/30 09:32:54;;;;;;;0.50;0.50;;;;;;;25.41;37.29;99422.13;6129326;23;20429;-83
2023/09/30 09:35:22;;;;;;;0.50;0.50;;;;;;;25.52;36.46;99420.63;6155859;23;20028;-84
2023/09/30 09:38:00;;;;;;;0.50;0.50;;;;;;;25.58;36.20;99404.66;6128386;23;20534;-83
2023/09/30 09:40:29;;;;;;;0.50;0.50;;;;;;;25.55;36.66;99405.31;6129120;23;20033;-84
2023/09/30 09:42:57;;;;;;;0.50;0.50;;;;;;;25.99;35.58;99416.09;6154277;23;20030;-84
2023/09/30 09:45:26;;;;;;;0.50;0.50;;;;;;;25.94;35.51;99398.56;6155351;23;20026;-84
2023/09/30 09:47:54;;;;;;;0.50;0.50;;;;;;;26.24;35.58;99414.25;6153953;23;20088;-84
2023/09/30 09:50:22;;;;;;;0.50;0.50;;;;;;;26.04;35.47;99389.03;6154427;23;20226;-84
2023/09/30 09:52:54;;;;;;;0.50;0.50;;;;;;;26.31;35.52;99407.03;6154202;23;20476;-84
2023/09/30 09:55:23;;;;;;;0.40;0.40;;;;;;;25.87;35.88;99409.34;6154830;23;20060;-83
2023/09/30 09:57:50;;;;;;;0.40;0.40;;;;;;;24.87;37.25;99417.13;6154049;23;20079;-85
2023/09/30 10:00:23;;;;;;;0.50;0.50;;;;;;;25.41;37.30;99394.50;6154478;23;20072;-84
2023/09/30 10:02:51;;;;;;;0.50;0.50;;;;;;;26.76;35.04;99405.44;6128896;23;20453;-85
2023/09/30 10:05:19;;;;;;;0.50;0.50;;;;;;;27.13;34.31;99411.06;6155033;23;20104;-85
2023/09/30 10:08:07;;;;;;;0.40;0.40;;;;;;;26.68;33.83;99398.06;6128459;23;20021;-85
2023/09/30 10:10:38;;;;;;;0.55;0.55;;;;;;;25.41;36.28;99408.31;6092498;23;20454;-85
2023/09/30 10:13:06;;;;;;;0.30;0.30;;;;;;;23.78;38.73;99409.13;6069244;23;20041;-84
2023/09/30 10:15:34;;;;;;;0.38;0.38;;;;;;;23.92;37.88;99403.44;6069138;23;20027;-84
2023/09/30 10:18:12;;;;;;;0.30;0.30;;;;;;;23.03;39.80;99408.22;6069157;23;20026;-83
2023/09/30 10:20:44;;;;;;;0.60;0.60;;;;;;;24.09;37.56;99375.88;6092474;23;20076;-84
2023/09/30 10:23:27;;;;;;;0.30;0.30;;;;;;;23.03;38.96;99398.03;6093305;23;20462;-84
2023/09/30 10:26:15;;;;;;;0.30;0.30;;;;;;;22.79;39.58;99392.88;6093098;23;20026;-87
2023/09/30 10:28:49;;;;;;;0.70;0.70;;;;;;;23.43;38.89;99392.50;6091992;23;20022;-86
2023/09/30 10:31:24;;;;;;;0.68;0.68;;;;;;;24.20;37.48;99384.63;6070120;23;20026;-83
2023/09/30 10:34:21;;;;;;;0.60;0.60;;;;;;;25.04;36.15;99388.66;6092336;23;20056;-87
2023/09/30 10:36:51;;;;;;;0.30;0.30;;;;;;;23.82;37.34;99396.31;6018739;23;20366;-84
2023/09/30 10:39:54;;;;;;;0.60;0.60;;;;;;;23.61;38.57;99387.81;6093648;23;20455;-85
2023/09/30 10:42:48;;;;;;;0.50;0.50;;;;;;;23.62;38.78;99377.63;6069718;23;20454;-83
2023/09/30 10:45:51;;;;;;;0.30;0.30;;;;;;;23.91;38.58;99385.31;6075782;23;20469;-85
2023/09/30 10:48:25;;;;;;;0.40;0.40;;;;;;;24.25;37.39;99367.91;6006828;23;20028;-84
2023/09/30 10:51:00;;;;;;;0.50;0.50;;;;;;;25.02;36.25;99363.34;5982518;23;20024;-84
2023/09/30 10:53:28;;;;;;;0.60;0.60;;;;;;;25.35;35.39;99361.91;6006944;23;20056;-86
2023/09/30 10:55:57;;;;;;;0.40;0.40;;;;;;;25.27;35.83;99367.13;6006431;23;20100;-84
2023/09/30 10:58:47;;;;;;;0.40;0.40;;;;;;;24.66;36.99;99361.03;6006472;23;20034;-83
2023/09/30 11:01:19;;;;;;;0.40;0.40;;;;;;;23.55;38.09;99350.56;6006955;23;20035;-84
2023/09/30 11:03:50;;;;;;;0.60;0.60;;;;;;;25.15;35.71;99350.44;5982671;23;20035;-84
2023/09/30 11:06:21;;;;;;;0.40;0.40;;;;;;;24.76;36.91;99343.28;6006924;23;20035;-84
2023/09/30 11:08:54;;;;;;;0.30;0.30;;;;;;;23.97;38.42;99343.44;6006578;23;20054;-85
2023/09/30 11:11:44;;;;;;;0.30;0.30;;;;;;;23.05;39.89;99342.69;5983605;23;20027;-83
2023/09/30 11:14:40;;;;;;;0.30;0.30;;;;;;;22.42;40.31;99341.88;6006168;23;20028;-87
2023/09/30 11:17:09;;;;;;;0.70;0.70;;;;;;;24.13;37.70;99337.44;5923105;24;20081;-86
2023/09/30 11:19:47;;;;;;;0.30;0.30;;;;;;;23.80;37.98;99335.19;5935858;24;20339;-84
2023/09/30 11:22:15;;;;;;;0.32;0.32;;;;;;;22.79;39.30;99318.59;6001829;23;20035;-84
2023/09/30 11:24:43;;;;;;;0.60;0.60;;;;;;;24.82;36.19;99328.19;6039899;23;20545;-84
2023/09/30 11:27:10;;;;;;;0.50;0.50;;;;;;;25.84;34.92;99338.13;6063325;23;20023;-84
2023/09/30 11:29:37;;;;;;;0.60;0.60;;;;;;;27.29;33.31;99328.88;6040252;23;20061;-85
2023/09/30 11:32:05;;;;;;;0.52;0.52;;;;;;;27.77;32.09;99337.44;6040082;23;20029;-85
2023/09/30 11:34:36;;;;;;;0.50;0.50;;;;;;;27.68;31.79;99323.72;6063643;23;20027;-85
2023/09/30 11:37:05;;;;;;;0.50;0.50;;;;;;;27.91;31.34;99315.69;6063506;23;20023;-85
2023/09/30 11:39:33;;;;;;;0.47;0.47;;;;;;;27.30;31.82;99302.00;6063683;23;20023;-85
2023/09/30 11:42:01;;;;;;;0.50;0.50;;;;;;;26.64;33.58;99303.84;6063452;23;20105;-84
2023/09/30 11:44:31;;;;;;;0.20;0.20;;;;;;;24.99;36.21;99321.75;6039850;23;20027;-85
2023/09/30 11:47:05;;;;;;;0.50;0.50;;;;;;;26.23;34.22;99302.81;6063385;23;20034;-84
2023/09/30 11:49:38;;;;;;;0.50;0.50;;;;;;;27.17;32.86;99299.22;6040986;23;20019;-85